sensor_id;sensor_type;location;lat;lon;timestamp;P1;durP1;ratioP1;P2;durP2;ratioP2
50821;SDS011;36794;51.212;6.980;2023-11-21T00:01:36;23.73;;;11.67;;
50821;SDS011;36794;51.212;6.980;2023-11-21T00:04:03;24.17;;;11.93;;
50821;SDS011;36794;51.212;6.980;2023-11-21T00:06:29;19.67;;;11.00;;
50821;SDS011;36794;51.212;6.980;2023-11-21T00:08:55;20.03;;;10.40;;
50821;SDS011;36794;51.212;6.980;2023-11-21T00:11:21;20.13;;;11.70;;
50821;SDS011;36794;51.212;6.980;2023-11-21T00:13:47;26.47;;;12.63;;
50821;SDS011;36794;51.212;6.980;2023-11-21T00:16:13;21.00;;;12.10;;
50821;SDS011;36794;51.212;6.980;2023-11-21T00:18:39;23.83;;;12.00;;
50821;SDS011;36794;51.212;6.980;2023-11-21T00:21:05;26.83;;;13.37;;
50821;SDS011;36794;51.212;6.980;2023-11-21T00:23:31;24.13;;;12.87;;
50821;SDS011;36794;51.212;6.980;2023-11-21T00:25:57;24.70;;;12.20;;
50821;SDS011;36794;51.212;6.980;2023-11-21T00:28:23;31.87;;;12.60;;
50821;SDS011;36794;51.212;6.980;2023-11-21T00:30:50;25.53;;;12.57;;
50821;SDS011;36794;51.212;6.980;2023-11-21T00:33:15;22.93;;;10.87;;
50821;SDS011;36794;51.212;6.980;2023-11-21T00:35:41;21.37;;;12.17;;
50821;SDS011;36794;51.212;6.980;2023-11-21T00:38:07;22.37;;;11.80;;
50821;SDS011;36794;51.212;6.980;2023-11-21T00:40:35;21.80;;;12.00;;
50821;SDS011;36794;51.212;6.980;2023-11-21T00:43:00;23.27;;;12.23;;
50821;SDS011;36794;51.212;6.980;2023-11-21T00:45:26;28.93;;;13.07;;
50821;SDS011;36794;51.212;6.980;2023-11-21T00:47:52;34.93;;;14.57;;
50821;SDS011;36794;51.212;6.980;2023-11-21T00:50:18;29.97;;;14.10;;
50821;SDS011;36794;51.212;6.980;2023-11-21T00:52:44;35.17;;;13.97;;
50821;SDS011;36794;51.212;6.980;2023-11-21T00:55:10;23.07;;;13.00;;
50821;SDS011;36794;51.212;6.980;2023-11-21T00:57:36;26.37;;;12.80;;
50821;SDS011;36794;51.212;6.980;2023-11-21T01:00:02;27.10;;;12.67;;
50821;SDS011;36794;51.212;6.980;2023-11-21T01:02:33;22.47;;;11.83;;
50821;SDS011;36794;51.212;6.980;2023-11-21T01:05:00;30.97;;;12.87;;
50821;SDS011;36794;51.212;6.980;2023-11-21T01:07:27;25.67;;;12.10;;
50821;SDS011;36794;51.212;6.980;2023-11-21T01:09:53;19.97;;;11.77;;
50821;SDS011;36794;51.212;6.980;2023-11-21T01:12:19;24.10;;;11.70;;
50821;SDS011;36794;51.212;6.980;2023-11-21T01:14:44;26.70;;;13.77;;
50821;SDS011;36794;51.212;6.980;2023-11-21T01:17:11;33.07;;;14.53;;
50821;SDS011;36794;51.212;6.980;2023-11-21T01:19:37;27.00;;;14.10;;
50821;SDS011;36794;51.212;6.980;2023-11-21T01:22:03;32.40;;;14.67;;
50821;SDS011;36794;51.212;6.980;2023-11-21T01:24:29;30.30;;;13.40;;
50821;SDS011;36794;51.212;6.980;2023-11-21T01:26:55;27.47;;;13.33;;
50821;SDS011;36794;51.212;6.980;2023-11-21T01:29:20;28.27;;;13.57;;
50821;SDS011;36794;51.212;6.980;2023-11-21T01:31:46;36.27;;;15.13;;
50821;SDS011;36794;51.212;6.980;2023-11-21T01:34:12;28.83;;;13.30;;
50821;SDS011;36794;51.212;6.980;2023-11-21T01:36:39;29.73;;;13.60;;
50821;SDS011;36794;51.212;6.980;2023-11-21T01:39:05;24.73;;;13.80;;
50821;SDS011;36794;51.212;6.980;2023-11-21T01:41:33;28.90;;;13.17;;
50821;SDS011;36794;51.212;6.980;2023-11-21T01:44:00;25.57;;;11.60;;
50821;SDS011;36794;51.212;6.980;2023-11-21T01:46:26;24.87;;;12.03;;
50821;SDS011;36794;51.212;6.980;2023-11-21T01:48:52;20.77;;;11.70;;
50821;SDS011;36794;51.212;6.980;2023-11-21T01:51:18;25.47;;;12.77;;
50821;SDS011;36794;51.212;6.980;2023-11-21T01:53:44;29.67;;;13.73;;
50821;SDS011;36794;51.212;6.980;2023-11-21T01:56:11;23.67;;;12.83;;
50821;SDS011;36794;51.212;6.980;2023-11-21T01:58:37;23.33;;;13.10;;
50821;SDS011;36794;51.212;6.980;2023-11-21T02:01:03;23.43;;;12.47;;
50821;SDS011;36794;51.212;6.980;2023-11-21T02:03:30;26.57;;;13.27;;
50821;SDS011;36794;51.212;6.980;2023-11-21T02:05:56;25.97;;;13.70;;
50821;SDS011;36794;51.212;6.980;2023-11-21T02:08:22;22.67;;;12.97;;
50821;SDS011;36794;51.212;6.980;2023-11-21T02:10:48;25.80;;;13.23;;
50821;SDS011;36794;51.212;6.980;2023-11-21T02:13:14;28.90;;;12.90;;
50821;SDS011;36794;51.212;6.980;2023-11-21T02:15:41;26.00;;;11.70;;
50821;SDS011;36794;51.212;6.980;2023-11-21T02:18:07;20.23;;;11.40;;
50821;SDS011;36794;51.212;6.980;2023-11-21T02:20:35;28.20;;;13.07;;
50821;SDS011;36794;51.212;6.980;2023-11-21T02:23:03;26.53;;;13.43;;
50821;SDS011;36794;51.212;6.980;2023-11-21T02:25:30;26.33;;;12.57;;
50821;SDS011;36794;51.212;6.980;2023-11-21T02:27:57;25.40;;;13.30;;
50821;SDS011;36794;51.212;6.980;2023-11-21T02:30:24;38.93;;;14.77;;
50821;SDS011;36794;51.212;6.980;2023-11-21T02:32:50;28.17;;;13.67;;
50821;SDS011;36794;51.212;6.980;2023-11-21T02:35:21;32.93;;;15.43;;
50821;SDS011;36794;51.212;6.980;2023-11-21T02:37:48;37.67;;;15.40;;
50821;SDS011;36794;51.212;6.980;2023-11-21T02:40:14;32.97;;;15.77;;
50821;SDS011;36794;51.212;6.980;2023-11-21T02:42:42;36.90;;;14.77;;
50821;SDS011;36794;51.212;6.980;2023-11-21T02:45:09;34.27;;;14.97;;
50821;SDS011;36794;51.212;6.980;2023-11-21T02:47:37;29.20;;;14.27;;
50821;SDS011;36794;51.212;6.980;2023-11-21T02:50:03;33.23;;;15.13;;
50821;SDS011;36794;51.212;6.980;2023-11-21T02:52:31;29.87;;;14.17;;
50821;SDS011;36794;51.212;6.980;2023-11-21T02:54:58;34.47;;;14.77;;
50821;SDS011;36794;51.212;6.980;2023-11-21T02:57:24;31.23;;;14.07;;
50821;SDS011;36794;51.212;6.980;2023-11-21T02:59:50;30.97;;;15.07;;
50821;SDS011;36794;51.212;6.980;2023-11-21T03:02:16;43.17;;;16.73;;
50821;SDS011;36794;51.212;6.980;2023-11-21T03:04:42;35.33;;;15.60;;
50821;SDS011;36794;51.212;6.980;2023-11-21T03:07:08;33.67;;;15.87;;
50821;SDS011;36794;51.212;6.980;2023-11-21T03:09:34;32.33;;;14.83;;
50821;SDS011;36794;51.212;6.980;2023-11-21T03:12:00;38.67;;;14.90;;
50821;SDS011;36794;51.212;6.980;2023-11-21T03:14:27;30.10;;;14.77;;
50821;SDS011;36794;51.212;6.980;2023-11-21T03:16:53;30.10;;;13.70;;
50821;SDS011;36794;51.212;6.980;2023-11-21T03:19:19;27.27;;;14.77;;
50821;SDS011;36794;51.212;6.980;2023-11-21T03:21:45;38.67;;;16.00;;
50821;SDS011;36794;51.212;6.980;2023-11-21T03:24:11;33.67;;;15.57;;
50821;SDS011;36794;51.212;6.980;2023-11-21T03:26:36;39.07;;;15.40;;
50821;SDS011;36794;51.212;6.980;2023-11-21T03:29:03;43.80;;;16.80;;
50821;SDS011;36794;51.212;6.980;2023-11-21T03:31:29;49.80;;;17.47;;
50821;SDS011;36794;51.212;6.980;2023-11-21T03:33:56;38.87;;;15.33;;
50821;SDS011;36794;51.212;6.980;2023-11-21T03:36:22;43.80;;;16.63;;
50821;SDS011;36794;51.212;6.980;2023-11-21T03:38:50;55.53;;;17.40;;
50821;SDS011;36794;51.212;6.980;2023-11-21T03:41:16;42.20;;;16.43;;
50821;SDS011;36794;51.212;6.980;2023-11-21T03:43:42;41.47;;;17.87;;
50821;SDS011;36794;51.212;6.980;2023-11-21T03:46:08;44.80;;;16.47;;
50821;SDS011;36794;51.212;6.980;2023-11-21T03:48:34;39.40;;;14.90;;
50821;SDS011;36794;51.212;6.980;2023-11-21T03:51:00;31.30;;;14.10;;
50821;SDS011;36794;51.212;6.980;2023-11-21T03:53:26;38.30;;;14.50;;
50821;SDS011;36794;51.212;6.980;2023-11-21T03:55:52;33.43;;;13.93;;
50821;SDS011;36794;51.212;6.980;2023-11-21T03:58:18;35.73;;;14.80;;
50821;SDS011;36794;51.212;6.980;2023-11-21T04:00:44;26.93;;;13.80;;
50821;SDS011;36794;51.212;6.980;2023-11-21T04:03:10;25.53;;;13.90;;
50821;SDS011;36794;51.212;6.980;2023-11-21T04:05:36;31.97;;;14.03;;
50821;SDS011;36794;51.212;6.980;2023-11-21T04:08:02;36.23;;;14.97;;
50821;SDS011;36794;51.212;6.980;2023-11-21T04:10:28;24.20;;;13.23;;
50821;SDS011;36794;51.212;6.980;2023-11-21T04:12:54;30.20;;;15.23;;
50821;SDS011;36794;51.212;6.980;2023-11-21T04:15:20;35.80;;;16.10;;
50821;SDS011;36794;51.212;6.980;2023-11-21T04:17:45;42.03;;;17.57;;
50821;SDS011;36794;51.212;6.980;2023-11-21T04:20:11;33.60;;;15.67;;
50821;SDS011;36794;51.212;6.980;2023-11-21T04:22:41;37.73;;;17.63;;
50821;SDS011;36794;51.212;6.980;2023-11-21T04:25:11;37.63;;;16.27;;
50821;SDS011;36794;51.212;6.980;2023-11-21T04:27:39;29.43;;;14.77;;
50821;SDS011;36794;51.212;6.980;2023-11-21T04:30:05;32.73;;;15.10;;
50821;SDS011;36794;51.212;6.980;2023-11-21T04:32:31;29.13;;;14.27;;
50821;SDS011;36794;51.212;6.980;2023-11-21T04:34:57;32.13;;;14.57;;
50821;SDS011;36794;51.212;6.980;2023-11-21T04:37:23;33.33;;;14.33;;
50821;SDS011;36794;51.212;6.980;2023-11-21T04:39:52;38.87;;;14.87;;
50821;SDS011;36794;51.212;6.980;2023-11-21T04:42:18;32.90;;;14.53;;
50821;SDS011;36794;51.212;6.980;2023-11-21T04:44:44;33.40;;;14.03;;
50821;SDS011;36794;51.212;6.980;2023-11-21T04:47:10;28.03;;;13.53;;
50821;SDS011;36794;51.212;6.980;2023-11-21T04:49:37;37.73;;;13.97;;
50821;SDS011;36794;51.212;6.980;2023-11-21T04:52:03;33.63;;;15.03;;
50821;SDS011;36794;51.212;6.980;2023-11-21T04:54:30;30.40;;;13.07;;
50821;SDS011;36794;51.212;6.980;2023-11-21T04:56:56;24.73;;;12.43;;
50821;SDS011;36794;51.212;6.980;2023-11-21T04:59:22;29.60;;;12.80;;
50821;SDS011;36794;51.212;6.980;2023-11-21T05:01:50;29.33;;;12.70;;
50821;SDS011;36794;51.212;6.980;2023-11-21T05:04:16;30.70;;;13.63;;
50821;SDS011;36794;51.212;6.980;2023-11-21T05:06:41;37.63;;;13.63;;
50821;SDS011;36794;51.212;6.980;2023-11-21T05:09:09;31.27;;;12.50;;
50821;SDS011;36794;51.212;6.980;2023-11-21T05:11:37;25.97;;;12.97;;
50821;SDS011;36794;51.212;6.980;2023-11-21T05:14:04;28.77;;;12.97;;
50821;SDS011;36794;51.212;6.980;2023-11-21T05:16:30;36.13;;;11.83;;
50821;SDS011;36794;51.212;6.980;2023-11-21T05:18:56;33.50;;;12.40;;
50821;SDS011;36794;51.212;6.980;2023-11-21T05:21:26;26.53;;;13.53;;
50821;SDS011;36794;51.212;6.980;2023-11-21T05:23:52;25.67;;;12.83;;
50821;SDS011;36794;51.212;6.980;2023-11-21T05:26:18;29.80;;;12.50;;
50821;SDS011;36794;51.212;6.980;2023-11-21T05:28:44;27.77;;;12.93;;
50821;SDS011;36794;51.212;6.980;2023-11-21T05:31:10;31.03;;;13.00;;
50821;SDS011;36794;51.212;6.980;2023-11-21T05:33:36;30.63;;;10.97;;
50821;SDS011;36794;51.212;6.980;2023-11-21T05:36:02;26.83;;;12.23;;
50821;SDS011;36794;51.212;6.980;2023-11-21T05:38:28;29.20;;;12.30;;
50821;SDS011;36794;51.212;6.980;2023-11-21T05:40:54;32.07;;;12.83;;
50821;SDS011;36794;51.212;6.980;2023-11-21T05:43:20;33.43;;;12.40;;
50821;SDS011;36794;51.212;6.980;2023-11-21T05:45:46;32.33;;;13.23;;
50821;SDS011;36794;51.212;6.980;2023-11-21T05:48:12;46.50;;;15.83;;
50821;SDS011;36794;51.212;6.980;2023-11-21T05:50:38;40.63;;;14.63;;
50821;SDS011;36794;51.212;6.980;2023-11-21T05:53:04;37.20;;;14.10;;
50821;SDS011;36794;51.212;6.980;2023-11-21T05:55:30;41.53;;;15.57;;
50821;SDS011;36794;51.212;6.980;2023-11-21T05:57:56;41.13;;;14.07;;
50821;SDS011;36794;51.212;6.980;2023-11-21T06:00:22;42.23;;;15.33;;
50821;SDS011;36794;51.212;6.980;2023-11-21T06:02:50;34.20;;;14.57;;
50821;SDS011;36794;51.212;6.980;2023-11-21T06:05:18;38.93;;;14.40;;
50821;SDS011;36794;51.212;6.980;2023-11-21T06:07:44;30.20;;;12.97;;
50821;SDS011;36794;51.212;6.980;2023-11-21T06:10:10;36.67;;;14.40;;
50821;SDS011;36794;51.212;6.980;2023-11-21T06:12:39;35.10;;;14.10;;
50821;SDS011;36794;51.212;6.980;2023-11-21T06:15:07;36.93;;;14.20;;
50821;SDS011;36794;51.212;6.980;2023-11-21T06:17:34;45.77;;;13.17;;
50821;SDS011;36794;51.212;6.980;2023-11-21T06:20:05;25.23;;;11.60;;
50821;SDS011;36794;51.212;6.980;2023-11-21T06:22:41;26.10;;;10.80;;
50821;SDS011;36794;51.212;6.980;2023-11-21T06:25:07;31.73;;;11.47;;
50821;SDS011;36794;51.212;6.980;2023-11-21T06:27:34;24.13;;;11.00;;
50821;SDS011;36794;51.212;6.980;2023-11-21T06:30:02;22.17;;;10.30;;
50821;SDS011;36794;51.212;6.980;2023-11-21T06:32:28;26.00;;;11.77;;
50821;SDS011;36794;51.212;6.980;2023-11-21T06:34:55;28.40;;;11.30;;
50821;SDS011;36794;51.212;6.980;2023-11-21T06:37:20;30.90;;;12.27;;
50821;SDS011;36794;51.212;6.980;2023-11-21T06:39:48;24.20;;;12.57;;
50821;SDS011;36794;51.212;6.980;2023-11-21T06:42:17;34.93;;;12.67;;
50821;SDS011;36794;51.212;6.980;2023-11-21T06:44:44;35.57;;;13.80;;
50821;SDS011;36794;51.212;6.980;2023-11-21T06:47:10;31.53;;;14.33;;
50821;SDS011;36794;51.212;6.980;2023-11-21T06:49:36;35.50;;;14.03;;
50821;SDS011;36794;51.212;6.980;2023-11-21T06:52:03;33.60;;;13.80;;
50821;SDS011;36794;51.212;6.980;2023-11-21T06:54:30;35.27;;;14.20;;
50821;SDS011;36794;51.212;6.980;2023-11-21T06:56:57;44.47;;;15.43;;
50821;SDS011;36794;51.212;6.980;2023-11-21T06:59:23;40.07;;;15.83;;
50821;SDS011;36794;51.212;6.980;2023-11-21T07:01:49;43.07;;;15.77;;
50821;SDS011;36794;51.212;6.980;2023-11-21T07:04:15;37.53;;;14.70;;
50821;SDS011;36794;51.212;6.980;2023-11-21T07:06:42;46.23;;;15.10;;
50821;SDS011;36794;51.212;6.980;2023-11-21T07:09:08;41.13;;;14.37;;
50821;SDS011;36794;51.212;6.980;2023-11-21T07:11:37;44.30;;;15.60;;
50821;SDS011;36794;51.212;6.980;2023-11-21T07:14:04;47.07;;;14.87;;
50821;SDS011;36794;51.212;6.980;2023-11-21T07:16:34;40.27;;;16.07;;
50821;SDS011;36794;51.212;6.980;2023-11-21T07:19:02;48.40;;;16.73;;
50821;SDS011;36794;51.212;6.980;2023-11-21T07:21:31;49.13;;;17.67;;
50821;SDS011;36794;51.212;6.980;2023-11-21T07:23:57;50.57;;;18.07;;
50821;SDS011;36794;51.212;6.980;2023-11-21T07:26:23;50.20;;;17.87;;
50821;SDS011;36794;51.212;6.980;2023-11-21T07:28:50;50.50;;;18.50;;
50821;SDS011;36794;51.212;6.980;2023-11-21T07:31:16;49.83;;;16.87;;
50821;SDS011;36794;51.212;6.980;2023-11-21T07:33:42;49.30;;;18.40;;
50821;SDS011;36794;51.212;6.980;2023-11-21T07:36:08;57.80;;;17.83;;
50821;SDS011;36794;51.212;6.980;2023-11-21T07:38:35;47.67;;;16.80;;
50821;SDS011;36794;51.212;6.980;2023-11-21T07:41:01;45.10;;;16.87;;
50821;SDS011;36794;51.212;6.980;2023-11-21T07:43:27;47.80;;;17.60;;
50821;SDS011;36794;51.212;6.980;2023-11-21T07:45:59;52.40;;;18.20;;
50821;SDS011;36794;51.212;6.980;2023-11-21T07:48:25;49.00;;;17.47;;
50821;SDS011;36794;51.212;6.980;2023-11-21T07:50:51;60.87;;;21.40;;
50821;SDS011;36794;51.212;6.980;2023-11-21T07:53:17;53.03;;;19.20;;
50821;SDS011;36794;51.212;6.980;2023-11-21T07:55:43;60.50;;;19.63;;
50821;SDS011;36794;51.212;6.980;2023-11-21T07:58:12;46.83;;;17.17;;
50821;SDS011;36794;51.212;6.980;2023-11-21T08:00:38;44.47;;;16.83;;
50821;SDS011;36794;51.212;6.980;2023-11-21T08:03:04;45.97;;;17.10;;
50821;SDS011;36794;51.212;6.980;2023-11-21T08:05:31;53.27;;;17.40;;
50821;SDS011;36794;51.212;6.980;2023-11-21T08:07:57;70.83;;;19.87;;
50821;SDS011;36794;51.212;6.980;2023-11-21T08:10:23;73.80;;;22.37;;
50821;SDS011;36794;51.212;6.980;2023-11-21T08:12:49;69.63;;;22.00;;
50821;SDS011;36794;51.212;6.980;2023-11-21T08:15:15;99.60;;;25.33;;
50821;SDS011;36794;51.212;6.980;2023-11-21T08:17:41;92.03;;;25.27;;
50821;SDS011;36794;51.212;6.980;2023-11-21T08:20:07;111.13;;;28.27;;
50821;SDS011;36794;51.212;6.980;2023-11-21T08:22:35;135.33;;;29.80;;
50821;SDS011;36794;51.212;6.980;2023-11-21T08:25:02;129.93;;;29.30;;
50821;SDS011;36794;51.212;6.980;2023-11-21T08:27:31;103.00;;;26.57;;
50821;SDS011;36794;51.212;6.980;2023-11-21T08:29:57;125.60;;;27.87;;
50821;SDS011;36794;51.212;6.980;2023-11-21T08:32:23;119.87;;;27.20;;
50821;SDS011;36794;51.212;6.980;2023-11-21T08:34:49;120.90;;;28.57;;
50821;SDS011;36794;51.212;6.980;2023-11-21T08:37:16;108.23;;;25.30;;
50821;SDS011;36794;51.212;6.980;2023-11-21T08:39:43;86.97;;;23.47;;
50821;SDS011;36794;51.212;6.980;2023-11-21T08:42:09;90.63;;;22.77;;
50821;SDS011;36794;51.212;6.980;2023-11-21T08:44:35;93.13;;;24.20;;
50821;SDS011;36794;51.212;6.980;2023-11-21T08:47:01;111.13;;;25.93;;
50821;SDS011;36794;51.212;6.980;2023-11-21T08:49:27;109.60;;;25.60;;
50821;SDS011;36794;51.212;6.980;2023-11-21T08:51:54;94.83;;;23.97;;
50821;SDS011;36794;51.212;6.980;2023-11-21T08:54:20;94.07;;;24.80;;
50821;SDS011;36794;51.212;6.980;2023-11-21T08:56:46;100.03;;;25.13;;
50821;SDS011;36794;51.212;6.980;2023-11-21T08:59:12;110.47;;;26.67;;
50821;SDS011;36794;51.212;6.980;2023-11-21T09:01:41;83.43;;;23.93;;
50821;SDS011;36794;51.212;6.980;2023-11-21T09:04:07;94.87;;;25.43;;
50821;SDS011;36794;51.212;6.980;2023-11-21T09:06:33;93.97;;;25.23;;
50821;SDS011;36794;51.212;6.980;2023-11-21T09:09:00;82.77;;;23.03;;
50821;SDS011;36794;51.212;6.980;2023-11-21T09:11:26;80.90;;;24.23;;
50821;SDS011;36794;51.212;6.980;2023-11-21T09:13:58;81.97;;;24.07;;
50821;SDS011;36794;51.212;6.980;2023-11-21T09:16:24;82.73;;;23.87;;
50821;SDS011;36794;51.212;6.980;2023-11-21T09:18:50;76.40;;;23.90;;
50821;SDS011;36794;51.212;6.980;2023-11-21T09:21:16;68.60;;;21.63;;
50821;SDS011;36794;51.212;6.980;2023-11-21T09:23:43;78.70;;;22.93;;
50821;SDS011;36794;51.212;6.980;2023-11-21T09:26:09;67.23;;;21.57;;
50821;SDS011;36794;51.212;6.980;2023-11-21T09:28:35;80.40;;;23.13;;
50821;SDS011;36794;51.212;6.980;2023-11-21T09:31:06;68.17;;;20.30;;
50821;SDS011;36794;51.212;6.980;2023-11-21T09:33:34;63.70;;;19.83;;
50821;SDS011;36794;51.212;6.980;2023-11-21T09:36:00;61.53;;;19.83;;
50821;SDS011;36794;51.212;6.980;2023-11-21T09:38:29;70.30;;;20.47;;
50821;SDS011;36794;51.212;6.980;2023-11-21T09:40:55;69.97;;;20.73;;
50821;SDS011;36794;51.212;6.980;2023-11-21T09:43:23;67.57;;;20.60;;
50821;SDS011;36794;51.212;6.980;2023-11-21T09:45:56;73.37;;;21.90;;
50821;SDS011;36794;51.212;6.980;2023-11-21T09:48:23;74.40;;;22.33;;
50821;SDS011;36794;51.212;6.980;2023-11-21T09:50:50;80.23;;;22.37;;
50821;SDS011;36794;51.212;6.980;2023-11-21T09:53:19;81.37;;;23.90;;
50821;SDS011;36794;51.212;6.980;2023-11-21T09:55:47;77.90;;;23.53;;
50821;SDS011;36794;51.212;6.980;2023-11-21T09:58:15;83.83;;;24.30;;
50821;SDS011;36794;51.212;6.980;2023-11-21T10:00:42;83.70;;;24.97;;
50821;SDS011;36794;51.212;6.980;2023-11-21T10:03:08;76.23;;;23.90;;
50821;SDS011;36794;51.212;6.980;2023-11-21T10:05:35;81.23;;;25.27;;
50821;SDS011;36794;51.212;6.980;2023-11-21T10:08:01;77.77;;;24.53;;
50821;SDS011;36794;51.212;6.980;2023-11-21T10:10:28;78.00;;;23.37;;
50821;SDS011;36794;51.212;6.980;2023-11-21T10:12:56;80.40;;;23.97;;
50821;SDS011;36794;51.212;6.980;2023-11-21T10:15:23;83.17;;;24.80;;
50821;SDS011;36794;51.212;6.980;2023-11-21T10:17:52;79.90;;;25.37;;
50821;SDS011;36794;51.212;6.980;2023-11-21T10:20:19;80.40;;;24.40;;
50821;SDS011;36794;51.212;6.980;2023-11-21T10:22:45;68.93;;;23.27;;
50821;SDS011;36794;51.212;6.980;2023-11-21T10:25:11;74.70;;;23.67;;
50821;SDS011;36794;51.212;6.980;2023-11-21T10:27:39;74.47;;;24.17;;
50821;SDS011;36794;51.212;6.980;2023-11-21T10:30:06;69.73;;;22.33;;
50821;SDS011;36794;51.212;6.980;2023-11-21T10:32:41;62.90;;;22.17;;
50821;SDS011;36794;51.212;6.980;2023-11-21T10:35:08;66.97;;;21.97;;
50821;SDS011;36794;51.212;6.980;2023-11-21T10:37:37;69.70;;;22.37;;
50821;SDS011;36794;51.212;6.980;2023-11-21T10:40:05;69.20;;;20.70;;
50821;SDS011;36794;51.212;6.980;2023-11-21T10:42:32;60.90;;;20.17;;
50821;SDS011;36794;51.212;6.980;2023-11-21T10:44:58;70.00;;;18.80;;
50821;SDS011;36794;51.212;6.980;2023-11-21T10:47:24;63.40;;;19.70;;
50821;SDS011;36794;51.212;6.980;2023-11-21T10:49:51;60.57;;;20.23;;
50821;SDS011;36794;51.212;6.980;2023-11-21T10:52:20;61.40;;;20.07;;
50821;SDS011;36794;51.212;6.980;2023-11-21T10:54:46;60.17;;;19.77;;
50821;SDS011;36794;51.212;6.980;2023-11-21T10:57:13;69.03;;;21.87;;
50821;SDS011;36794;51.212;6.980;2023-11-21T10:59:40;69.90;;;22.83;;
50821;SDS011;36794;51.212;6.980;2023-11-21T11:02:18;66.67;;;23.00;;
50821;SDS011;36794;51.212;6.980;2023-11-21T11:04:48;74.90;;;24.13;;
50821;SDS011;36794;51.212;6.980;2023-11-21T11:09:44;83.17;;;25.47;;
50821;SDS011;36794;51.212;6.980;2023-11-21T11:12:12;80.80;;;22.93;;
50821;SDS011;36794;51.212;6.980;2023-11-21T11:14:40;77.77;;;23.43;;
50821;SDS011;36794;51.212;6.980;2023-11-21T11:19:39;69.20;;;20.90;;
50821;SDS011;36794;51.212;6.980;2023-11-21T11:22:18;73.20;;;22.17;;
50821;SDS011;36794;51.212;6.980;2023-11-21T11:32:24;75.97;;;22.67;;
50821;SDS011;36794;51.212;6.980;2023-11-21T11:34:59;85.30;;;24.10;;
50821;SDS011;36794;51.212;6.980;2023-11-21T11:37:27;82.07;;;23.37;;
50821;SDS011;36794;51.212;6.980;2023-11-21T11:39:53;75.93;;;23.40;;
50821;SDS011;36794;51.212;6.980;2023-11-21T11:42:20;89.17;;;25.33;;
50821;SDS011;36794;51.212;6.980;2023-11-21T11:44:49;87.40;;;24.47;;
50821;SDS011;36794;51.212;6.980;2023-11-21T11:50:05;81.73;;;25.03;;
50821;SDS011;36794;51.212;6.980;2023-11-21T11:52:47;67.13;;;19.63;;
50821;SDS011;36794;51.212;6.980;2023-11-21T11:55:16;72.33;;;21.43;;
50821;SDS011;36794;51.212;6.980;2023-11-21T11:57:46;80.87;;;22.60;;
50821;SDS011;36794;51.212;6.980;2023-11-21T12:00:13;73.00;;;22.90;;
50821;SDS011;36794;51.212;6.980;2023-11-21T12:02:54;81.33;;;24.43;;
50821;SDS011;36794;51.212;6.980;2023-11-21T12:05:34;84.47;;;24.97;;
50821;SDS011;36794;51.212;6.980;2023-11-21T12:08:04;77.80;;;24.03;;
50821;SDS011;36794;51.212;6.980;2023-11-21T12:10:31;86.93;;;25.40;;
50821;SDS011;36794;51.212;6.980;2023-11-21T12:13:00;87.80;;;25.20;;
50821;SDS011;36794;51.212;6.980;2023-11-21T12:15:26;84.13;;;25.37;;
50821;SDS011;36794;51.212;6.980;2023-11-21T12:17:55;95.37;;;26.40;;
50821;SDS011;36794;51.212;6.980;2023-11-21T12:23:24;85.63;;;25.37;;
50821;SDS011;36794;51.212;6.980;2023-11-21T12:25:50;84.17;;;24.13;;
50821;SDS011;36794;51.212;6.980;2023-11-21T12:28:16;67.27;;;24.03;;
50821;SDS011;36794;51.212;6.980;2023-11-21T12:30:42;73.13;;;24.73;;
50821;SDS011;36794;51.212;6.980;2023-11-21T12:33:08;82.50;;;25.73;;
50821;SDS011;36794;51.212;6.980;2023-11-21T12:35:35;67.23;;;23.50;;
50821;SDS011;36794;51.212;6.980;2023-11-21T12:38:02;69.43;;;23.70;;
50821;SDS011;36794;51.212;6.980;2023-11-21T12:40:28;62.97;;;22.77;;
50821;SDS011;36794;51.212;6.980;2023-11-21T12:42:56;59.40;;;22.50;;
50821;SDS011;36794;51.212;6.980;2023-11-21T12:45:24;58.17;;;20.17;;
50821;SDS011;36794;51.212;6.980;2023-11-21T12:50:24;62.60;;;21.60;;
50821;SDS011;36794;51.212;6.980;2023-11-21T12:52:54;61.47;;;21.60;;
50821;SDS011;36794;51.212;6.980;2023-11-21T12:55:20;49.27;;;19.13;;
50821;SDS011;36794;51.212;6.980;2023-11-21T12:57:53;52.17;;;19.30;;
50821;SDS011;36794;51.212;6.980;2023-11-21T13:00:20;50.87;;;19.37;;
50821;SDS011;36794;51.212;6.980;2023-11-21T13:02:52;55.37;;;19.53;;
50821;SDS011;36794;51.212;6.980;2023-11-21T13:05:25;56.97;;;19.57;;
50821;SDS011;36794;51.212;6.980;2023-11-21T13:07:52;49.27;;;18.73;;
50821;SDS011;36794;51.212;6.980;2023-11-21T13:10:19;51.40;;;18.93;;
50821;SDS011;36794;51.212;6.980;2023-11-21T13:12:50;49.30;;;20.23;;
50821;SDS011;36794;51.212;6.980;2023-11-21T13:15:17;62.93;;;18.73;;
50821;SDS011;36794;51.212;6.980;2023-11-21T13:17:43;53.73;;;19.70;;
50821;SDS011;36794;51.212;6.980;2023-11-21T13:20:13;62.37;;;20.87;;
50821;SDS011;36794;51.212;6.980;2023-11-21T13:22:55;54.40;;;20.27;;
50821;SDS011;36794;51.212;6.980;2023-11-21T13:25:29;58.00;;;21.43;;
50821;SDS011;36794;51.212;6.980;2023-11-21T13:27:56;55.50;;;20.20;;
50821;SDS011;36794;51.212;6.980;2023-11-21T13:30:23;61.23;;;21.57;;
50821;SDS011;36794;51.212;6.980;2023-11-21T13:32:55;62.07;;;21.80;;
50821;SDS011;36794;51.212;6.980;2023-11-21T13:35:22;72.50;;;22.67;;
50821;SDS011;36794;51.212;6.980;2023-11-21T13:37:56;66.88;;;22.27;;
50821;SDS011;36794;51.212;6.980;2023-11-21T13:40:25;57.47;;;19.77;;
50821;SDS011;36794;51.212;6.980;2023-11-21T13:42:52;58.80;;;21.90;;
50821;SDS011;36794;51.212;6.980;2023-11-21T13:45:19;69.93;;;24.20;;
50821;SDS011;36794;51.212;6.980;2023-11-21T13:47:47;59.03;;;20.53;;
50821;SDS011;36794;51.212;6.980;2023-11-21T13:50:12;62.73;;;21.03;;
50821;SDS011;36794;51.212;6.980;2023-11-21T13:52:44;66.17;;;22.80;;
50821;SDS011;36794;51.212;6.980;2023-11-21T13:55:10;74.13;;;23.00;;
50821;SDS011;36794;51.212;6.980;2023-11-21T14:13:27;61.00;;;22.20;;
50821;SDS011;36794;51.212;6.980;2023-11-21T14:18:56;59.23;;;22.17;;
50821;SDS011;36794;51.212;6.980;2023-11-21T14:21:34;60.63;;;22.83;;
50821;SDS011;36794;51.212;6.980;2023-11-21T14:24:00;54.13;;;22.83;;
50821;SDS011;36794;51.212;6.980;2023-11-21T14:26:27;52.03;;;23.40;;
50821;SDS011;36794;51.212;6.980;2023-11-21T14:28:55;48.83;;;22.70;;
50821;SDS011;36794;51.212;6.980;2023-11-21T14:31:22;46.60;;;22.50;;
50821;SDS011;36794;51.212;6.980;2023-11-21T14:36:54;37.13;;;18.53;;
50821;SDS011;36794;51.212;6.980;2023-11-21T14:45:28;30.07;;;14.37;;
50821;SDS011;36794;51.212;6.980;2023-11-21T14:47:54;26.27;;;13.67;;
50821;SDS011;36794;51.212;6.980;2023-11-21T14:50:30;24.20;;;12.53;;
50821;SDS011;36794;51.212;6.980;2023-11-21T14:53:09;22.23;;;10.90;;
50821;SDS011;36794;51.212;6.980;2023-11-21T14:55:37;20.93;;;11.60;;
50821;SDS011;36794;51.212;6.980;2023-11-21T14:58:18;19.30;;;10.03;;
50821;SDS011;36794;51.212;6.980;2023-11-21T15:00:54;24.07;;;11.33;;
50821;SDS011;36794;51.212;6.980;2023-11-21T15:03:23;26.20;;;10.97;;
50821;SDS011;36794;51.212;6.980;2023-11-21T15:05:58;18.00;;;11.33;;
50821;SDS011;36794;51.212;6.980;2023-11-21T15:08:44;26.67;;;13.30;;
50821;SDS011;36794;51.212;6.980;2023-11-21T15:11:10;24.17;;;12.50;;